createdAt,value
2019-04-01T00:00:23.294Z,6.43
2019-04-01T00:02:51.777Z,10.60
2019-04-01T00:05:20.278Z,8.60
2019-04-01T00:07:48.712Z,8.37
2019-04-01T00:10:17.150Z,9.17
2019-04-01T00:12:45.649Z,4.83
2019-04-01T00:15:14.237Z,10.10
2019-04-01T00:17:42.687Z,6.47
2019-04-01T00:20:11.383Z,10.87
2019-04-01T00:22:39.936Z,9.37
2019-04-01T00:25:08.782Z,10.63
2019-04-01T00:27:37.278Z,8.40
2019-04-01T00:30:05.780Z,7.93
2019-04-01T00:32:34.216Z,9.10
2019-04-01T00:35:02.719Z,6.30
2019-04-01T00:37:31.162Z,8.07
2019-04-01T00:39:59.601Z,9.47
2019-04-01T00:42:29.749Z,12.57
2019-04-01T00:44:58.181Z,7.55
2019-04-01T00:47:26.623Z,8.47
2019-04-01T00:49:55.408Z,8.77
2019-04-01T00:52:23.858Z,7.17
2019-04-01T00:54:52.549Z,8.67
2019-04-01T00:57:20.987Z,9.37
2019-04-01T00:59:49.431Z,11.10
2019-04-01T01:02:17.906Z,5.87
2019-04-01T01:04:46.379Z,8.20
2019-04-01T01:07:14.849Z,6.43
2019-04-01T01:09:43.289Z,6.07
2019-04-01T01:12:11.773Z,10.20
2019-04-01T01:14:40.205Z,5.53
2019-04-01T01:17:08.681Z,6.27
2019-04-01T01:19:37.126Z,6.90
2019-04-01T01:22:05.645Z,5.77
2019-04-01T01:24:34.082Z,7.60
2019-04-01T01:27:02.593Z,6.47
2019-04-01T01:29:31.080Z,9.50
2019-04-01T01:31:59.587Z,8.40
2019-04-01T01:34:28.026Z,6.03
2019-04-01T01:36:56.474Z,6.63
2019-04-01T01:39:24.952Z,6.53
2019-04-01T01:41:53.396Z,8.27
2019-04-01T01:44:21.880Z,3.33
2019-04-01T01:46:50.323Z,12.60
2019-04-01T01:49:18.796Z,8.33
2019-04-01T01:51:47.243Z,9.90
2019-04-01T01:54:15.750Z,9.77
2019-04-01T01:56:44.190Z,8.47
2019-04-01T01:59:12.639Z,5.53
2019-04-01T02:01:41.124Z,9.20
2019-04-01T02:04:09.567Z,9.13
2019-04-01T02:06:38.018Z,11.37
2019-04-01T02:09:06.639Z,10.70
2019-04-01T02:11:35.090Z,9.87
2019-04-01T02:14:03.603Z,8.90
2019-04-01T02:16:32.037Z,5.37
2019-04-01T02:19:00.502Z,6.00
2019-04-01T02:21:29.442Z,11.37
2019-04-01T02:23:58.031Z,13.13
2019-04-01T02:26:26.722Z,9.33
2019-04-01T02:28:55.281Z,9.23
2019-04-01T02:31:23.738Z,8.97
2019-04-01T02:33:52.598Z,10.43
2019-04-01T02:36:21.038Z,8.00
2019-04-01T02:38:49.497Z,8.40
2019-04-01T02:41:18.071Z,10.10
2019-04-01T02:43:46.626Z,6.00
2019-04-01T02:46:15.087Z,8.20
2019-04-01T02:48:43.579Z,11.43
2019-04-01T02:51:12.095Z,7.90
2019-04-01T02:53:40.980Z,9.43
2019-04-01T02:56:09.525Z,10.67
2019-04-01T02:58:38.045Z,6.27
2019-04-01T03:01:06.614Z,7.00
2019-04-01T03:03:35.056Z,4.97
2019-04-01T03:06:03.517Z,13.67
2019-04-01T03:08:32.074Z,12.63
2019-04-01T03:11:00.535Z,7.90
2019-04-01T03:13:29.269Z,10.00
2019-04-01T03:15:57.719Z,8.73
2019-04-01T03:18:26.257Z,12.40
2019-04-01T03:20:54.840Z,10.63
2019-04-01T03:23:23.352Z,6.97
2019-04-01T03:25:52.334Z,10.07
2019-04-01T03:28:21.061Z,10.73
2019-04-01T03:30:49.587Z,9.07
2019-04-01T03:33:18.103Z,11.97
2019-04-01T03:35:46.617Z,10.40
2019-04-01T03:38:15.069Z,12.70
2019-04-01T03:40:43.522Z,10.33
2019-04-01T03:43:12.016Z,13.70
2019-04-01T03:45:40.533Z,7.33
2019-04-01T03:48:09.057Z,10.87
2019-04-01T03:50:37.618Z,7.80
2019-04-01T03:53:06.065Z,6.30
2019-04-01T03:55:35.270Z,9.13
2019-04-01T03:58:04.083Z,4.65
2019-04-01T04:00:32.540Z,7.87
2019-04-01T04:03:01.061Z,9.37
2019-04-01T04:05:29.524Z,12.87
2019-04-01T04:07:57.996Z,8.00
2019-04-01T04:10:26.527Z,10.23
2019-04-01T04:12:54.977Z,11.47
2019-04-01T04:15:23.465Z,15.67
2019-04-01T04:17:51.957Z,10.03
2019-04-01T04:20:20.471Z,7.70
2019-04-01T04:22:48.986Z,11.10
2019-04-01T04:25:17.616Z,9.93
2019-04-01T04:27:46.068Z,9.50
2019-04-01T04:30:17.629Z,14.37
2019-04-01T04:32:46.206Z,11.73
2019-04-01T04:35:14.794Z,9.93
2019-04-01T04:37:43.424Z,10.07
2019-04-01T04:40:12.721Z,14.13
2019-04-01T04:42:41.170Z,7.20
2019-04-01T04:45:09.889Z,7.20
2019-04-01T04:47:38.593Z,9.73
2019-04-01T04:50:07.484Z,10.73
2019-04-01T04:52:35.929Z,11.37
2019-04-01T04:55:05.664Z,9.73
2019-04-01T04:57:34.185Z,17.92
2019-04-01T05:00:03.162Z,7.73
2019-04-01T05:02:31.690Z,10.70
2019-04-01T05:05:00.471Z,10.93
2019-04-01T05:07:31.407Z,10.33
2019-04-01T05:09:59.167Z,10.98
2019-04-01T05:12:27.646Z,15.50
2019-04-01T05:14:56.243Z,13.60
2019-04-01T05:17:24.694Z,11.67
2019-04-01T05:19:53.143Z,9.53
2019-04-01T05:22:23.018Z,11.97
2019-04-01T05:24:52.808Z,12.33
2019-04-01T05:27:24.451Z,9.10
2019-04-01T05:29:54.503Z,13.70
2019-04-01T05:32:22.957Z,12.45
2019-04-01T05:35:12.326Z,10.97
2019-04-01T05:37:41.019Z,20.17
2019-04-01T05:40:09.806Z,18.80
2019-04-01T05:42:38.298Z,14.57
2019-04-01T05:45:07.498Z,12.93
2019-04-01T05:47:37.918Z,12.87
2019-04-01T05:50:06.738Z,15.23
2019-04-01T05:52:35.418Z,15.87
2019-04-01T05:55:08.697Z,16.73
2019-04-01T05:57:35.585Z,15.53
2019-04-01T06:00:05.994Z,15.43
2019-04-01T06:02:34.513Z,13.03
2019-04-01T06:05:03.091Z,18.17
2019-04-01T06:07:31.615Z,14.80
2019-04-01T06:10:00.257Z,19.03
2019-04-01T06:12:29.855Z,20.60
2019-04-01T06:14:58.302Z,21.12
2019-04-01T06:17:26.806Z,20.10
2019-04-01T06:19:55.254Z,14.60
2019-04-01T06:22:23.715Z,22.33
2019-04-01T06:24:52.220Z,14.60
2019-04-01T06:27:20.669Z,16.17
2019-04-01T06:29:49.128Z,13.60
2019-04-01T06:32:17.659Z,17.57
2019-04-01T06:34:52.728Z,24.77
2019-04-01T06:39:44.220Z,21.27
2019-04-01T06:42:12.811Z,14.20
2019-04-01T06:44:41.254Z,13.87
2019-04-01T06:47:09.697Z,15.90
2019-04-01T06:49:38.192Z,18.40
2019-04-01T06:52:06.648Z,13.80
2019-04-01T06:54:35.090Z,14.53
2019-04-01T06:57:03.587Z,10.57
2019-04-01T06:59:32.165Z,11.57
2019-04-01T07:02:00.614Z,19.83
2019-04-01T07:04:29.090Z,13.30
2019-04-01T07:06:57.554Z,10.27
2019-04-01T07:09:26.111Z,10.77
2019-04-01T07:11:54.765Z,11.07
2019-04-01T07:14:23.240Z,10.67
2019-04-01T07:16:51.687Z,12.97
2019-04-01T07:19:20.167Z,12.07
2019-04-01T07:21:48.660Z,11.83
2019-04-01T07:24:17.181Z,9.37
2019-04-01T07:26:45.650Z,15.70
2019-04-01T07:29:14.485Z,11.10
2019-04-01T07:31:42.993Z,18.43
2019-04-01T07:34:11.438Z,9.70
2019-04-01T07:36:39.922Z,12.03
2019-04-01T07:39:08.369Z,11.10
2019-04-01T07:41:36.900Z,8.23
2019-04-01T07:44:05.548Z,9.83
2019-04-01T07:46:34.000Z,11.03
2019-04-01T07:49:02.712Z,9.57
2019-04-01T07:51:31.177Z,7.53
2019-04-01T07:53:59.665Z,13.73
2019-04-01T07:56:28.101Z,6.93
2019-04-01T07:58:56.586Z,9.57
2019-04-01T08:01:25.102Z,5.27
2019-04-01T08:03:53.547Z,10.17
2019-04-01T08:06:22.042Z,4.20
2019-04-01T08:08:51.230Z,8.97
2019-04-01T08:11:19.726Z,7.07
2019-04-01T08:13:48.278Z,13.27
2019-04-01T08:16:16.728Z,5.50
2019-04-01T08:18:45.184Z,7.17
2019-04-01T08:21:13.657Z,9.70
2019-04-01T08:23:42.153Z,9.60
2019-04-01T08:26:10.601Z,9.13
2019-04-01T08:28:39.048Z,6.73
2019-04-01T08:31:08.374Z,7.43
2019-04-01T08:33:36.816Z,7.50
2019-04-01T08:36:05.311Z,5.00
2019-04-01T08:38:33.758Z,7.30
2019-04-01T08:41:02.274Z,8.13
2019-04-01T08:43:30.960Z,6.30
2019-04-01T08:45:59.675Z,4.70
2019-04-01T08:48:28.125Z,4.60
2019-04-01T08:50:56.691Z,9.50
2019-04-01T08:53:25.234Z,11.13
2019-04-01T08:56:00.503Z,7.73
2019-04-01T08:58:23.885Z,5.15
2019-04-01T09:00:52.570Z,10.27
2019-04-01T09:03:21.018Z,12.70
2019-04-01T09:05:49.496Z,7.87
2019-04-01T09:08:18.215Z,7.17
2019-04-01T09:10:46.725Z,8.07
2019-04-01T09:13:15.442Z,4.87
2019-04-01T09:15:43.934Z,7.47
2019-04-01T09:18:12.374Z,4.78
2019-04-01T09:20:40.877Z,5.87
2019-04-01T09:23:09.327Z,7.10
2019-04-01T09:25:37.769Z,6.83
2019-04-01T09:28:06.257Z,4.45
2019-04-01T09:30:35.054Z,3.67
2019-04-01T09:33:03.619Z,6.53
2019-04-01T09:35:32.072Z,5.15
2019-04-01T09:38:00.536Z,5.45
2019-04-01T09:40:29.127Z,9.65
2019-04-01T09:42:57.773Z,3.42
2019-04-01T09:45:26.218Z,3.72
2019-04-01T09:47:54.697Z,2.67
2019-04-01T09:50:23.222Z,5.45
2019-04-01T09:52:51.662Z,6.65
2019-04-01T09:55:20.106Z,6.58
2019-04-01T09:57:48.619Z,4.53
2019-04-01T10:00:17.897Z,5.28
2019-04-01T10:02:46.343Z,4.67
2019-04-01T10:05:15.690Z,8.75
2019-04-01T10:07:44.234Z,3.17
2019-04-01T10:10:13.190Z,4.78
2019-04-01T10:12:41.702Z,5.80
2019-04-01T10:15:10.315Z,5.15
2019-04-01T10:17:38.760Z,5.25
2019-04-01T10:20:08.603Z,6.83
2019-04-01T10:22:37.127Z,3.60
2019-04-01T10:25:06.214Z,4.72
2019-04-01T10:27:34.686Z,5.05
2019-04-01T10:30:04.373Z,5.58
2019-04-01T10:32:32.854Z,4.70
2019-04-01T10:35:01.311Z,5.33
2019-04-01T10:37:29.789Z,8.55
2019-04-01T10:40:00.174Z,3.47
2019-04-01T10:42:28.489Z,4.28
2019-04-01T10:44:56.945Z,7.58
2019-04-01T10:47:25.643Z,4.97
2019-04-01T10:49:54.209Z,6.75
2019-04-01T10:52:22.724Z,6.47
2019-04-01T10:54:51.392Z,4.62
2019-04-01T10:57:20.041Z,6.17
2019-04-01T10:59:48.728Z,4.40
2019-04-01T11:02:18.551Z,5.22
2019-04-01T11:04:47.287Z,6.95
2019-04-01T11:07:15.852Z,4.70
2019-04-01T11:09:44.441Z,3.83
2019-04-01T11:12:12.898Z,6.17
2019-04-01T11:14:41.458Z,8.53
2019-04-01T11:17:09.946Z,5.20
2019-04-01T11:19:39.460Z,5.60
2019-04-01T11:22:08.182Z,8.60
2019-04-01T11:24:36.642Z,6.45
2019-04-01T11:27:05.170Z,5.12
2019-04-01T11:29:33.899Z,5.28
2019-04-01T11:32:02.439Z,3.87
2019-04-01T11:34:30.983Z,4.72
2019-04-01T11:36:59.541Z,5.72
2019-04-01T11:39:27.993Z,6.45
2019-04-01T11:41:56.578Z,3.08
2019-04-01T11:44:25.102Z,4.50
2019-04-01T11:46:53.841Z,5.25
2019-04-01T11:49:22.527Z,9.13
2019-04-01T11:51:51.028Z,5.53
2019-04-01T11:54:19.582Z,3.90
2019-04-01T11:56:48.029Z,5.08
2019-04-01T11:59:16.496Z,3.52
2019-04-01T12:01:44.998Z,9.60
2019-04-01T12:04:13.456Z,5.15
2019-04-01T12:06:41.905Z,5.65
2019-04-01T12:09:10.396Z,6.12
2019-04-01T12:11:38.840Z,4.17
2019-04-01T12:14:07.355Z,4.30
2019-04-01T12:16:35.884Z,4.80
2019-04-01T12:19:04.407Z,3.58
2019-04-01T12:21:32.895Z,5.17
2019-04-01T12:24:01.593Z,3.12
2019-04-01T12:26:30.117Z,5.08
2019-04-01T12:28:58.573Z,6.00
2019-04-01T12:31:27.212Z,7.95
2019-04-01T12:33:55.735Z,5.08
2019-04-01T12:36:24.219Z,4.08
2019-04-01T12:38:53.829Z,4.12
2019-04-01T12:41:22.523Z,5.28
2019-04-01T12:43:51.320Z,5.90
2019-04-01T12:46:20.093Z,4.33
2019-04-01T12:48:48.610Z,7.20
2019-04-01T12:51:17.116Z,5.03
2019-04-01T12:53:45.972Z,6.03
2019-04-01T12:56:14.480Z,4.60
2019-04-01T12:58:42.996Z,5.35
2019-04-01T13:01:11.446Z,5.95
2019-04-01T13:03:39.975Z,3.52
2019-04-01T13:06:08.494Z,4.20
2019-04-01T13:08:36.938Z,5.15
2019-04-01T13:11:05.393Z,3.92
2019-04-01T13:13:33.880Z,6.20
2019-04-01T13:16:02.389Z,2.83
2019-04-01T13:18:30.847Z,4.60
2019-04-01T13:20:59.302Z,4.67
2019-04-01T13:23:27.811Z,4.55
2019-04-01T13:25:56.254Z,2.45
2019-04-01T13:28:25.964Z,4.65
2019-04-01T13:30:55.218Z,3.70
2019-04-01T13:33:24.034Z,3.87
2019-04-01T13:35:52.897Z,4.70
2019-04-01T13:38:21.808Z,4.35
2019-04-01T13:40:50.340Z,5.45
2019-04-01T13:43:18.807Z,2.67
2019-04-01T13:45:47.322Z,3.37
2019-04-01T13:48:15.773Z,4.33
2019-04-01T13:50:44.318Z,8.43
2019-04-01T13:53:12.826Z,5.60
2019-04-01T13:55:41.269Z,6.25
2019-04-01T13:58:10.505Z,2.33
2019-04-01T14:00:39.546Z,2.98
2019-04-01T14:03:11.057Z,4.75
2019-04-01T14:05:38.220Z,3.45
2019-04-01T14:08:06.815Z,5.78
2019-04-01T14:10:35.333Z,3.55
2019-04-01T14:13:03.871Z,2.90
2019-04-01T14:15:32.453Z,5.72
2019-04-01T14:18:00.917Z,4.60
2019-04-01T14:20:29.405Z,4.33
2019-04-01T14:22:59.603Z,4.30
2019-04-01T14:25:28.594Z,3.77
2019-04-01T14:27:57.055Z,6.10
2019-04-01T14:30:25.542Z,4.90
2019-04-01T14:32:53.990Z,5.25
2019-04-01T14:35:23.872Z,7.15
2019-04-01T14:37:52.535Z,5.83
2019-04-01T14:40:20.992Z,8.43
2019-04-01T14:42:49.514Z,5.55
2019-04-01T14:45:18.022Z,7.87
2019-04-01T14:47:56.974Z,7.05
2019-04-01T14:50:17.031Z,4.97
2019-04-01T14:52:45.541Z,5.03
2019-04-01T14:55:13.999Z,5.33
2019-04-01T14:57:42.464Z,6.47
2019-04-01T15:00:12.741Z,6.65
2019-04-01T15:02:41.460Z,10.05
2019-04-01T15:05:10.755Z,8.83
2019-04-01T15:07:39.423Z,10.10
2019-04-01T15:10:08.607Z,4.58
2019-04-01T15:12:37.086Z,4.87
2019-04-01T15:15:07.973Z,4.83
2019-04-01T15:17:36.999Z,6.60
2019-04-01T15:20:07.557Z,5.10
2019-04-01T15:25:05.717Z,5.53
2019-04-01T15:27:34.231Z,5.50
2019-04-01T15:30:02.747Z,4.60
2019-04-01T15:32:31.235Z,6.00
2019-04-01T15:34:59.750Z,5.03
2019-04-01T15:37:31.789Z,5.85
2019-04-01T15:39:58.667Z,3.60
2019-04-01T15:42:27.186Z,6.65
2019-04-01T15:44:55.629Z,5.65
2019-04-01T15:47:24.229Z,6.05
2019-04-01T15:49:52.757Z,3.90
2019-04-01T15:52:21.290Z,6.28
2019-04-01T15:54:49.889Z,5.35
2019-04-01T15:57:18.343Z,4.58
2019-04-01T15:59:46.862Z,3.05
2019-04-01T16:02:15.439Z,4.53
2019-04-01T16:04:43.886Z,5.25
2019-04-01T16:07:12.345Z,5.22
2019-04-01T16:09:41.084Z,8.13
2019-04-01T16:12:09.532Z,8.28
2019-04-01T16:14:37.985Z,5.78
2019-04-01T16:17:06.488Z,5.12
2019-04-01T16:19:35.022Z,6.42
2019-04-01T16:22:03.528Z,4.40
2019-04-01T16:24:31.995Z,5.60
2019-04-01T16:27:00.463Z,5.22
2019-04-01T16:29:29.036Z,7.97
2019-04-01T16:31:57.860Z,8.05
2019-04-01T16:34:26.716Z,7.00
2019-04-01T16:36:55.299Z,4.80
2019-04-01T16:39:23.746Z,4.65
2019-04-01T16:41:52.199Z,6.53
2019-04-01T16:44:20.895Z,5.83
2019-04-01T16:46:50.308Z,4.90
2019-04-01T16:49:18.757Z,4.57
2019-04-01T16:51:47.248Z,3.83
2019-04-01T16:54:15.782Z,7.25
2019-04-01T16:56:44.303Z,5.00
2019-04-01T16:59:12.754Z,7.00
2019-04-01T17:01:41.706Z,5.00
2019-04-01T17:04:10.405Z,3.65
2019-04-01T17:06:38.858Z,4.33
2019-04-01T17:09:08.954Z,4.50
2019-04-01T17:11:37.489Z,4.20
2019-04-01T17:14:08.959Z,3.92
2019-04-01T17:16:36.124Z,4.42
2019-04-01T17:19:04.598Z,5.90
2019-04-01T17:21:33.205Z,3.98
2019-04-01T17:24:02.633Z,3.65
2019-04-01T17:26:31.214Z,5.60
2019-04-01T17:28:59.658Z,5.55
2019-04-01T17:31:28.982Z,5.83
2019-04-01T17:33:57.501Z,3.62
2019-04-01T17:36:26.019Z,6.33
2019-04-01T17:38:54.477Z,3.98
2019-04-01T17:41:22.930Z,5.33
2019-04-01T17:43:51.451Z,8.28
2019-04-01T17:46:19.907Z,5.60
2019-04-01T17:48:48.351Z,5.75
2019-04-01T17:51:16.850Z,5.00
2019-04-01T17:53:45.310Z,6.47
2019-04-01T17:56:13.840Z,4.85
2019-04-01T17:58:42.411Z,7.33
2019-04-01T18:01:11.988Z,5.37
2019-04-01T18:03:40.437Z,5.95
2019-04-01T18:06:08.950Z,8.20
2019-04-01T18:08:37.398Z,5.30
2019-04-01T18:11:05.833Z,3.75
2019-04-01T18:13:34.323Z,6.70
2019-04-01T18:16:02.835Z,7.60
2019-04-01T18:18:33.895Z,9.60
2019-04-01T18:21:02.427Z,4.78
2019-04-01T18:23:31.834Z,6.00
2019-04-01T18:26:00.349Z,5.95
2019-04-01T18:28:28.794Z,7.80
2019-04-01T18:30:57.313Z,8.53
2019-04-01T18:33:25.837Z,8.30
2019-04-01T18:35:54.613Z,5.92
2019-04-01T18:38:23.351Z,9.53
2019-04-01T18:40:51.966Z,4.87
2019-04-01T18:43:20.419Z,5.30
2019-04-01T18:45:48.906Z,3.87
2019-04-01T18:48:19.330Z,5.03
2019-04-01T18:50:47.536Z,6.25
2019-04-01T18:53:16.042Z,7.67
2019-04-01T18:55:44.491Z,5.75
2019-04-01T18:58:12.931Z,5.92
2019-04-01T19:00:41.402Z,5.67
2019-04-01T19:03:10.675Z,5.28
2019-04-01T19:05:39.526Z,4.15
2019-04-01T19:08:08.299Z,4.78
2019-04-01T19:10:39.290Z,4.03
2019-04-01T19:13:11.307Z,7.12
2019-04-01T19:15:38.525Z,4.05
2019-04-01T19:18:07.453Z,5.95
2019-04-01T19:20:35.902Z,8.75
2019-04-01T19:23:04.418Z,6.03
2019-04-01T19:25:32.927Z,4.67
2019-04-01T19:28:01.370Z,4.55
2019-04-01T19:30:29.826Z,4.08
2019-04-01T19:32:58.308Z,5.42
2019-04-01T19:35:26.755Z,7.10
2019-04-01T19:37:56.141Z,3.90
2019-04-01T19:40:24.764Z,5.20
2019-04-01T19:42:53.248Z,5.47
2019-04-01T19:45:22.089Z,8.03
2019-04-01T19:47:50.533Z,4.55
2019-04-01T19:50:20.048Z,6.33
2019-04-01T19:52:48.557Z,4.92
2019-04-01T19:55:17.049Z,4.77
2019-04-01T19:57:45.494Z,8.47
2019-04-01T20:00:27.072Z,11.85
2019-04-01T20:02:44.645Z,7.97
2019-04-01T20:05:13.412Z,11.13
2019-04-01T20:07:41.917Z,6.73
2019-04-01T20:10:10.776Z,8.23
2019-04-01T20:12:40.267Z,9.03
2019-04-01T20:15:12.111Z,9.30
2019-04-01T20:17:41.280Z,12.47
2019-04-01T20:20:10.253Z,6.60
2019-04-01T20:22:38.712Z,8.17
2019-04-01T20:25:08.093Z,4.70
2019-04-01T20:27:36.550Z,4.50
2019-04-01T20:30:09.366Z,4.93
2019-04-01T20:32:38.148Z,5.20
2019-04-01T20:35:08.301Z,6.37
2019-04-01T20:37:36.868Z,5.10
2019-04-01T20:40:06.782Z,7.20
2019-04-01T20:42:35.305Z,6.45
2019-04-01T20:45:05.741Z,6.03
2019-04-01T20:50:01.851Z,6.97
2019-04-01T20:52:30.330Z,6.63
2019-04-01T20:54:58.802Z,8.13
2019-04-01T20:57:27.256Z,9.33
2019-04-01T20:59:55.740Z,8.17
2019-04-01T21:02:24.185Z,6.93
2019-04-01T21:04:52.711Z,7.80
2019-04-01T21:07:21.221Z,10.13
2019-04-01T21:09:49.673Z,5.47
2019-04-01T21:12:18.152Z,6.30
2019-04-01T21:14:46.674Z,10.30
2019-04-01T21:17:15.123Z,7.50
2019-04-01T21:19:44.298Z,8.93
2019-04-01T21:22:13.538Z,15.95
2019-04-01T21:24:41.991Z,7.37
2019-04-01T21:27:10.467Z,10.17
2019-04-01T21:29:38.920Z,7.87
2019-04-01T21:32:07.406Z,8.43
2019-04-01T21:34:35.843Z,7.60
2019-04-01T21:37:06.076Z,7.60
2019-04-01T21:42:02.408Z,7.13
2019-04-01T21:44:30.954Z,10.17
2019-04-01T21:46:59.466Z,7.90
2019-04-01T21:49:27.937Z,9.13
2019-04-01T21:51:56.381Z,8.73
2019-04-01T21:54:24.898Z,4.93
2019-04-01T21:56:53.340Z,9.03
2019-04-01T21:59:21.792Z,8.07
2019-04-01T22:01:50.306Z,7.07
2019-04-01T22:04:18.748Z,8.63
2019-04-01T22:06:47.262Z,10.27
2019-04-01T22:09:15.774Z,8.77
2019-04-01T22:11:44.223Z,8.77
2019-04-01T22:14:12.674Z,8.67
2019-04-01T22:16:41.253Z,7.00
2019-04-01T22:19:09.709Z,9.07
2019-04-01T22:21:38.145Z,8.50
2019-04-01T22:24:06.645Z,10.00
2019-04-01T22:26:35.088Z,6.77
2019-04-01T22:29:03.542Z,5.80
2019-04-01T22:31:32.120Z,7.40
2019-04-01T22:34:00.558Z,8.03
2019-04-01T22:36:31.179Z,8.23
2019-04-01T22:38:59.219Z,8.35
2019-04-01T22:41:29.190Z,6.67
2019-04-01T22:43:57.943Z,8.83
2019-04-01T22:46:26.647Z,6.53
2019-04-01T22:48:55.087Z,8.27
2019-04-01T22:51:23.606Z,7.37
2019-04-01T22:53:52.140Z,10.90
2019-04-01T22:56:20.674Z,10.87
2019-04-01T22:58:49.178Z,7.07
2019-04-01T23:01:17.609Z,7.00
2019-04-01T23:03:46.054Z,7.47
2019-04-01T23:06:14.557Z,8.93
2019-04-01T23:08:42.994Z,9.83
2019-04-01T23:11:11.445Z,10.67
2019-04-01T23:13:39.922Z,9.03
2019-04-01T23:16:08.401Z,9.03
2019-04-01T23:18:36.837Z,7.20
2019-04-01T23:21:05.349Z,7.53
2019-04-01T23:23:33.796Z,10.77
2019-04-01T23:26:02.246Z,12.57
2019-04-01T23:28:30.724Z,7.40
2019-04-01T23:30:59.174Z,9.27
2019-04-01T23:33:27.675Z,9.27
2019-04-01T23:35:56.122Z,8.67
2019-04-01T23:38:24.568Z,10.97
2019-04-01T23:40:53.042Z,8.17
2019-04-01T23:43:21.528Z,10.03
2019-04-01T23:45:50.055Z,9.07
2019-04-01T23:48:18.662Z,10.43
2019-04-01T23:50:47.110Z,8.53
2019-04-01T23:53:15.545Z,6.63
2019-04-01T23:55:44.043Z,12.27
2019-04-01T23:58:12.576Z,7.63
